logo
Rechercher aéroport 
image banner adimage banner adimage banner ad
image banner ad

CAJ9 - Fort Ware

Situé à , Canada

ICAO - CAJ9, IATA -

Données fournies par Airmate  

Information générale

Coordonnées: N57°25'49" W125°39'10"
Élévation : 2500 feet MSL.
Variation magnétique : 18.6371° East
Voir autres Aéroports à British Columbia

Données opérationnelles

Special qualification required
Heure actuelle UTC:
Heure actuelle locale:
Météo à : - ( 0 km )
METAR: K40B 251516Z AUTO 16008G15KT 110V190 19/17 A2992 RMK AO1 SLP127 T01930173 57012 P0006 60006
Voir NOTAMs / SUP AIP / TFR affectant cet aéroport [VIEW]
Fréquences de communication: [VIEW]

Pistes:

Identifiant RWYQFULongueur (ft)Largeur (ft)SurfaceLDA (ft)
11133°4890100GRAVE4890
29313°4890100GRAVE4890

Coordonnées de l'aéroport

Adresse: Canada

Vue satellite de CAJ9